sensor_id;sensor_type;location;lat;lon;timestamp;temperature;humidity
11744;DHT22;5929;51.906;7.674;2022-10-04T00:01:07;9.80;99.90
11744;DHT22;5929;51.906;7.674;2022-10-04T00:03:41;9.90;99.90
11744;DHT22;5929;51.906;7.674;2022-10-04T00:06:14;9.90;99.90
11744;DHT22;5929;51.906;7.674;2022-10-04T00:08:46;9.80;99.90
11744;DHT22;5929;51.906;7.674;2022-10-04T00:11:20;9.70;99.90
11744;DHT22;5929;51.906;7.674;2022-10-04T00:13:51;9.70;99.90
11744;DHT22;5929;51.906;7.674;2022-10-04T00:16:22;9.80;99.90
11744;DHT22;5929;51.906;7.674;2022-10-04T00:19:00;9.80;99.90
11744;DHT22;5929;51.906;7.674;2022-10-04T00:24:31;9.90;99.90
11744;DHT22;5929;51.906;7.674;2022-10-04T00:27:16;9.80;99.90
11744;DHT22;5929;51.906;7.674;2022-10-04T00:29:49;9.80;99.90
11744;DHT22;5929;51.906;7.674;2022-10-04T00:32:46;9.60;99.90
11744;DHT22;5929;51.906;7.674;2022-10-04T00:35:44;9.50;99.90
11744;DHT22;5929;51.906;7.674;2022-10-04T00:38:13;9.60;99.90
11744;DHT22;5929;51.906;7.674;2022-10-04T00:40:48;9.70;99.90
11744;DHT22;5929;51.906;7.674;2022-10-04T00:43:20;9.80;99.90
11744;DHT22;5929;51.906;7.674;2022-10-04T00:45:52;9.90;99.90
11744;DHT22;5929;51.906;7.674;2022-10-04T00:48:34;9.90;99.90
11744;DHT22;5929;51.906;7.674;2022-10-04T00:51:18;9.90;99.90
11744;DHT22;5929;51.906;7.674;2022-10-04T00:53:57;9.90;99.90
11744;DHT22;5929;51.906;7.674;2022-10-04T00:56:31;9.90;99.90
11744;DHT22;5929;51.906;7.674;2022-10-04T01:02:04;9.90;99.90
11744;DHT22;5929;51.906;7.674;2022-10-04T01:04:40;9.90;99.90
11744;DHT22;5929;51.906;7.674;2022-10-04T01:07:08;9.80;99.90
11744;DHT22;5929;51.906;7.674;2022-10-04T01:09:45;9.70;99.90
11744;DHT22;5929;51.906;7.674;2022-10-04T01:12:25;9.90;99.90
11744;DHT22;5929;51.906;7.674;2022-10-04T01:15:02;9.90;99.90
11744;DHT22;5929;51.906;7.674;2022-10-04T01:17:30;9.90;99.90
11744;DHT22;5929;51.906;7.674;2022-10-04T01:19:57;9.80;99.90
11744;DHT22;5929;51.906;7.674;2022-10-04T01:22:36;9.80;99.90
11744;DHT22;5929;51.906;7.674;2022-10-04T01:25:05;9.80;99.90
11744;DHT22;5929;51.906;7.674;2022-10-04T01:27:35;9.80;99.90
11744;DHT22;5929;51.906;7.674;2022-10-04T01:30:04;9.90;99.90
11744;DHT22;5929;51.906;7.674;2022-10-04T01:32:33;9.80;99.90
11744;DHT22;5929;51.906;7.674;2022-10-04T01:35:01;9.80;99.90
11744;DHT22;5929;51.906;7.674;2022-10-04T01:37:28;9.90;99.90
11744;DHT22;5929;51.906;7.674;2022-10-04T01:39:56;10.00;99.90
11744;DHT22;5929;51.906;7.674;2022-10-04T01:42:28;10.00;99.90
11744;DHT22;5929;51.906;7.674;2022-10-04T01:45:00;10.10;99.90
11744;DHT22;5929;51.906;7.674;2022-10-04T01:47:33;10.10;99.90
11744;DHT22;5929;51.906;7.674;2022-10-04T01:50:06;10.10;99.90
11744;DHT22;5929;51.906;7.674;2022-10-04T01:52:36;10.10;99.90
11744;DHT22;5929;51.906;7.674;2022-10-04T01:55:12;10.10;99.90
11744;DHT22;5929;51.906;7.674;2022-10-04T01:57:44;10.10;99.90
11744;DHT22;5929;51.906;7.674;2022-10-04T02:00:13;10.10;99.90
11744;DHT22;5929;51.906;7.674;2022-10-04T02:02:44;10.10;99.90
11744;DHT22;5929;51.906;7.674;2022-10-04T02:05:23;10.00;99.90
11744;DHT22;5929;51.906;7.674;2022-10-04T02:07:54;9.90;99.90
11744;DHT22;5929;51.906;7.674;2022-10-04T02:10:23;9.80;99.90
11744;DHT22;5929;51.906;7.674;2022-10-04T02:12:52;9.80;99.90
11744;DHT22;5929;51.906;7.674;2022-10-04T02:15:21;9.80;99.90
11744;DHT22;5929;51.906;7.674;2022-10-04T02:17:54;9.80;99.90
11744;DHT22;5929;51.906;7.674;2022-10-04T02:20:24;9.80;99.90
11744;DHT22;5929;51.906;7.674;2022-10-04T02:22:55;9.80;99.90
11744;DHT22;5929;51.906;7.674;2022-10-04T02:25:25;9.90;99.90
11744;DHT22;5929;51.906;7.674;2022-10-04T02:27:52;9.80;99.90
11744;DHT22;5929;51.906;7.674;2022-10-04T02:30:20;9.80;99.90
11744;DHT22;5929;51.906;7.674;2022-10-04T02:32:48;9.70;99.90
11744;DHT22;5929;51.906;7.674;2022-10-04T02:35:25;9.70;99.90
11744;DHT22;5929;51.906;7.674;2022-10-04T02:37:59;9.70;99.90
11744;DHT22;5929;51.906;7.674;2022-10-04T02:40:31;9.70;99.90
11744;DHT22;5929;51.906;7.674;2022-10-04T02:43:03;9.70;99.90
11744;DHT22;5929;51.906;7.674;2022-10-04T02:45:41;9.70;99.90
11744;DHT22;5929;51.906;7.674;2022-10-04T02:48:27;9.70;99.90
11744;DHT22;5929;51.906;7.674;2022-10-04T02:50:59;9.70;99.90
11744;DHT22;5929;51.906;7.674;2022-10-04T02:53:36;9.70;99.90
11744;DHT22;5929;51.906;7.674;2022-10-04T02:56:09;9.80;99.90
11744;DHT22;5929;51.906;7.674;2022-10-04T02:58:38;9.80;99.90
11744;DHT22;5929;51.906;7.674;2022-10-04T03:01:06;9.70;99.90
11744;DHT22;5929;51.906;7.674;2022-10-04T03:03:33;9.70;99.90
11744;DHT22;5929;51.906;7.674;2022-10-04T03:06:05;9.70;99.90
11744;DHT22;5929;51.906;7.674;2022-10-04T03:08:35;9.80;99.90
11744;DHT22;5929;51.906;7.674;2022-10-04T03:11:03;9.70;99.90
11744;DHT22;5929;51.906;7.674;2022-10-04T03:13:32;9.60;99.90
11744;DHT22;5929;51.906;7.674;2022-10-04T03:16:01;9.70;99.90
11744;DHT22;5929;51.906;7.674;2022-10-04T03:18:29;9.70;99.90
11744;DHT22;5929;51.906;7.674;2022-10-04T03:20:57;9.70;99.90
11744;DHT22;5929;51.906;7.674;2022-10-04T03:23:29;9.60;99.90
11744;DHT22;5929;51.906;7.674;2022-10-04T03:26:00;9.60;99.90
11744;DHT22;5929;51.906;7.674;2022-10-04T03:28:29;9.60;99.90
11744;DHT22;5929;51.906;7.674;2022-10-04T03:30:57;9.60;99.90
11744;DHT22;5929;51.906;7.674;2022-10-04T03:33:25;9.60;99.90
11744;DHT22;5929;51.906;7.674;2022-10-04T03:35:55;9.60;99.90
11744;DHT22;5929;51.906;7.674;2022-10-04T03:38:23;9.60;99.90
11744;DHT22;5929;51.906;7.674;2022-10-04T03:40:56;9.50;99.90
11744;DHT22;5929;51.906;7.674;2022-10-04T03:43:27;9.50;99.90
11744;DHT22;5929;51.906;7.674;2022-10-04T03:45:58;9.40;99.90
11744;DHT22;5929;51.906;7.674;2022-10-04T03:48:30;9.50;99.90
11744;DHT22;5929;51.906;7.674;2022-10-04T03:50:58;9.40;99.90
11744;DHT22;5929;51.906;7.674;2022-10-04T03:53:34;9.40;99.90
11744;DHT22;5929;51.906;7.674;2022-10-04T03:56:10;9.50;99.90
11744;DHT22;5929;51.906;7.674;2022-10-04T03:58:37;9.50;99.90
11744;DHT22;5929;51.906;7.674;2022-10-04T04:01:13;9.50;99.90
11744;DHT22;5929;51.906;7.674;2022-10-04T04:03:52;9.50;99.90
11744;DHT22;5929;51.906;7.674;2022-10-04T04:06:21;9.40;99.90
11744;DHT22;5929;51.906;7.674;2022-10-04T04:08:51;9.30;99.90
11744;DHT22;5929;51.906;7.674;2022-10-04T04:11:22;9.30;99.90
11744;DHT22;5929;51.906;7.674;2022-10-04T04:13:55;9.40;99.90
11744;DHT22;5929;51.906;7.674;2022-10-04T04:16:25;9.30;99.90
11744;DHT22;5929;51.906;7.674;2022-10-04T04:18:54;9.30;99.90
11744;DHT22;5929;51.906;7.674;2022-10-04T04:21:24;9.10;99.90
11744;DHT22;5929;51.906;7.674;2022-10-04T04:23:55;9.20;99.90
11744;DHT22;5929;51.906;7.674;2022-10-04T04:26:27;9.10;99.90
11744;DHT22;5929;51.906;7.674;2022-10-04T04:29:00;9.10;99.90
11744;DHT22;5929;51.906;7.674;2022-10-04T04:31:33;9.10;99.90
11744;DHT22;5929;51.906;7.674;2022-10-04T04:34:03;9.10;99.90
11744;DHT22;5929;51.906;7.674;2022-10-04T04:36:37;9.10;99.90
11744;DHT22;5929;51.906;7.674;2022-10-04T04:39:11;9.10;99.90
11744;DHT22;5929;51.906;7.674;2022-10-04T04:41:57;9.20;99.90
11744;DHT22;5929;51.906;7.674;2022-10-04T04:44:25;9.10;99.90
11744;DHT22;5929;51.906;7.674;2022-10-04T04:46:54;9.10;99.90
11744;DHT22;5929;51.906;7.674;2022-10-04T04:49:21;9.00;99.90
11744;DHT22;5929;51.906;7.674;2022-10-04T04:51:50;9.00;99.90
11744;DHT22;5929;51.906;7.674;2022-10-04T04:54:19;8.90;99.90
11744;DHT22;5929;51.906;7.674;2022-10-04T04:56:50;9.00;99.90
11744;DHT22;5929;51.906;7.674;2022-10-04T04:59:19;8.90;99.90
11744;DHT22;5929;51.906;7.674;2022-10-04T05:01:49;8.90;99.90
11744;DHT22;5929;51.906;7.674;2022-10-04T05:04:20;8.90;99.90
11744;DHT22;5929;51.906;7.674;2022-10-04T05:06:57;8.90;99.90
11744;DHT22;5929;51.906;7.674;2022-10-04T05:09:26;8.90;99.90
11744;DHT22;5929;51.906;7.674;2022-10-04T05:11:56;8.90;99.90
11744;DHT22;5929;51.906;7.674;2022-10-04T05:14:24;8.80;99.90
11744;DHT22;5929;51.906;7.674;2022-10-04T05:16:52;8.80;99.90
11744;DHT22;5929;51.906;7.674;2022-10-04T05:19:22;8.90;99.90
11744;DHT22;5929;51.906;7.674;2022-10-04T05:21:54;8.90;99.90
11744;DHT22;5929;51.906;7.674;2022-10-04T05:24:24;8.80;99.90
11744;DHT22;5929;51.906;7.674;2022-10-04T05:26:55;8.70;99.90
11744;DHT22;5929;51.906;7.674;2022-10-04T05:29:25;8.70;99.90
11744;DHT22;5929;51.906;7.674;2022-10-04T05:32:01;8.70;99.90
11744;DHT22;5929;51.906;7.674;2022-10-04T05:34:37;8.70;99.90
11744;DHT22;5929;51.906;7.674;2022-10-04T05:37:24;8.70;99.90
11744;DHT22;5929;51.906;7.674;2022-10-04T05:40:02;8.60;99.90
11744;DHT22;5929;51.906;7.674;2022-10-04T05:42:36;8.60;99.90
11744;DHT22;5929;51.906;7.674;2022-10-04T05:45:16;8.50;99.90
11744;DHT22;5929;51.906;7.674;2022-10-04T05:47:44;8.50;99.90
11744;DHT22;5929;51.906;7.674;2022-10-04T05:50:17;8.50;99.90
11744;DHT22;5929;51.906;7.674;2022-10-04T05:52:46;8.50;99.90
11744;DHT22;5929;51.906;7.674;2022-10-04T05:55:24;8.50;99.90
11744;DHT22;5929;51.906;7.674;2022-10-04T06:01:10;8.50;99.90
11744;DHT22;5929;51.906;7.674;2022-10-04T06:04:03;8.60;99.90
11744;DHT22;5929;51.906;7.674;2022-10-04T06:06:41;8.60;99.90
11744;DHT22;5929;51.906;7.674;2022-10-04T06:09:24;8.60;99.90
11744;DHT22;5929;51.906;7.674;2022-10-04T06:11:58;8.60;99.90
11744;DHT22;5929;51.906;7.674;2022-10-04T06:17:51;8.60;99.90
11744;DHT22;5929;51.906;7.674;2022-10-04T06:20:47;8.70;99.90
11744;DHT22;5929;51.906;7.674;2022-10-04T06:23:22;8.70;99.90
11744;DHT22;5929;51.906;7.674;2022-10-04T06:25:54;8.80;99.90
11744;DHT22;5929;51.906;7.674;2022-10-04T06:28:24;8.90;99.90
11744;DHT22;5929;51.906;7.674;2022-10-04T06:31:09;8.90;99.90
11744;DHT22;5929;51.906;7.674;2022-10-04T06:37:01;9.10;99.90
11744;DHT22;5929;51.906;7.674;2022-10-04T06:39:58;9.10;99.90
11744;DHT22;5929;51.906;7.674;2022-10-04T06:45:35;9.30;99.90
11744;DHT22;5929;51.906;7.674;2022-10-04T06:48:30;9.30;99.90
11744;DHT22;5929;51.906;7.674;2022-10-04T06:51:08;9.30;99.90
11744;DHT22;5929;51.906;7.674;2022-10-04T06:53:47;9.40;99.90
11744;DHT22;5929;51.906;7.674;2022-10-04T06:56:36;9.40;99.90
11744;DHT22;5929;51.906;7.674;2022-10-04T06:59:28;9.60;99.90
11744;DHT22;5929;51.906;7.674;2022-10-04T07:02:00;9.60;99.90
11744;DHT22;5929;51.906;7.674;2022-10-04T07:04:34;9.70;99.90
11744;DHT22;5929;51.906;7.674;2022-10-04T07:07:15;9.80;99.90
11744;DHT22;5929;51.906;7.674;2022-10-04T07:10:15;9.90;99.90
11744;DHT22;5929;51.906;7.674;2022-10-04T07:12:52;10.00;99.90
11744;DHT22;5929;51.906;7.674;2022-10-04T07:15:27;10.20;99.90
11744;DHT22;5929;51.906;7.674;2022-10-04T07:17:55;10.20;99.90
11744;DHT22;5929;51.906;7.674;2022-10-04T07:20:27;10.30;99.90
11744;DHT22;5929;51.906;7.674;2022-10-04T07:22:58;10.40;99.90
11744;DHT22;5929;51.906;7.674;2022-10-04T07:25:28;10.40;99.90
11744;DHT22;5929;51.906;7.674;2022-10-04T07:28:03;10.50;99.90
11744;DHT22;5929;51.906;7.674;2022-10-04T07:30:52;10.60;99.90
11744;DHT22;5929;51.906;7.674;2022-10-04T07:33:23;10.60;99.90
11744;DHT22;5929;51.906;7.674;2022-10-04T07:35:59;10.70;99.90
11744;DHT22;5929;51.906;7.674;2022-10-04T07:38:31;10.70;99.90
11744;DHT22;5929;51.906;7.674;2022-10-04T07:41:04;10.80;99.90
11744;DHT22;5929;51.906;7.674;2022-10-04T07:43:47;10.90;99.90
11744;DHT22;5929;51.906;7.674;2022-10-04T07:46:34;11.00;99.90
11744;DHT22;5929;51.906;7.674;2022-10-04T07:49:12;11.00;99.90
11744;DHT22;5929;51.906;7.674;2022-10-04T07:51:58;11.20;99.90
11744;DHT22;5929;51.906;7.674;2022-10-04T07:54:34;11.20;99.90
11744;DHT22;5929;51.906;7.674;2022-10-04T07:57:07;11.30;99.90
11744;DHT22;5929;51.906;7.674;2022-10-04T07:59:43;11.40;99.90
11744;DHT22;5929;51.906;7.674;2022-10-04T08:02:19;11.40;99.90
11744;DHT22;5929;51.906;7.674;2022-10-04T08:05:00;11.50;99.90
11744;DHT22;5929;51.906;7.674;2022-10-04T08:07:42;11.50;99.90
11744;DHT22;5929;51.906;7.674;2022-10-04T08:10:17;11.50;99.90
11744;DHT22;5929;51.906;7.674;2022-10-04T08:12:56;11.60;99.90
11744;DHT22;5929;51.906;7.674;2022-10-04T08:15:34;11.60;99.90
11744;DHT22;5929;51.906;7.674;2022-10-04T08:18:16;11.60;99.90
11744;DHT22;5929;51.906;7.674;2022-10-04T08:20:52;11.60;99.90
11744;DHT22;5929;51.906;7.674;2022-10-04T08:23:34;11.60;99.90
11744;DHT22;5929;51.906;7.674;2022-10-04T08:26:11;11.60;99.90
11744;DHT22;5929;51.906;7.674;2022-10-04T08:28:48;11.60;99.90
11744;DHT22;5929;51.906;7.674;2022-10-04T08:31:45;11.60;99.90
11744;DHT22;5929;51.906;7.674;2022-10-04T08:34:37;11.70;99.90
11744;DHT22;5929;51.906;7.674;2022-10-04T08:37:15;11.70;99.90
11744;DHT22;5929;51.906;7.674;2022-10-04T08:40:03;11.80;99.90
11744;DHT22;5929;51.906;7.674;2022-10-04T08:43:01;11.90;99.90
11744;DHT22;5929;51.906;7.674;2022-10-04T08:45:56;12.00;99.90
11744;DHT22;5929;51.906;7.674;2022-10-04T08:58:04;12.50;99.90
11744;DHT22;5929;51.906;7.674;2022-10-04T09:00:54;12.60;99.90
11744;DHT22;5929;51.906;7.674;2022-10-04T09:06:50;12.80;99.90
11744;DHT22;5929;51.906;7.674;2022-10-04T09:15:35;13.00;99.90
11744;DHT22;5929;51.906;7.674;2022-10-04T09:18:20;13.10;99.90
11744;DHT22;5929;51.906;7.674;2022-10-04T09:20:55;13.10;99.90
11744;DHT22;5929;51.906;7.674;2022-10-04T09:24:09;13.30;99.90
11744;DHT22;5929;51.906;7.674;2022-10-04T09:26:43;13.30;99.90
11744;DHT22;5929;51.906;7.674;2022-10-04T09:29:33;13.40;99.90
11744;DHT22;5929;51.906;7.674;2022-10-04T09:35:21;13.60;99.90
11744;DHT22;5929;51.906;7.674;2022-10-04T09:41:04;13.80;99.90
11744;DHT22;5929;51.906;7.674;2022-10-04T09:44:04;13.90;99.90
11744;DHT22;5929;51.906;7.674;2022-10-04T09:46:56;14.00;99.90
11744;DHT22;5929;51.906;7.674;2022-10-04T09:50:01;14.00;99.90
11744;DHT22;5929;51.906;7.674;2022-10-04T09:52:39;14.20;99.90
11744;DHT22;5929;51.906;7.674;2022-10-04T10:01:20;14.50;99.90
11744;DHT22;5929;51.906;7.674;2022-10-04T10:07:12;14.70;99.90
11744;DHT22;5929;51.906;7.674;2022-10-04T10:09:48;14.80;99.90
11744;DHT22;5929;51.906;7.674;2022-10-04T10:12:47;14.80;99.90
11744;DHT22;5929;51.906;7.674;2022-10-04T10:15:46;14.80;99.90
11744;DHT22;5929;51.906;7.674;2022-10-04T10:18:21;15.00;99.90
11744;DHT22;5929;51.906;7.674;2022-10-04T10:24:03;15.10;99.90
11744;DHT22;5929;51.906;7.674;2022-10-04T10:26:51;15.20;99.90
11744;DHT22;5929;51.906;7.674;2022-10-04T10:32:38;15.50;99.90
11744;DHT22;5929;51.906;7.674;2022-10-04T10:35:32;15.60;99.90
11744;DHT22;5929;51.906;7.674;2022-10-04T10:38:41;15.70;99.90
11744;DHT22;5929;51.906;7.674;2022-10-04T10:41:29;15.80;99.90
11744;DHT22;5929;51.906;7.674;2022-10-04T10:44:19;16.00;99.90
11744;DHT22;5929;51.906;7.674;2022-10-04T10:47:06;16.30;99.90
11744;DHT22;5929;51.906;7.674;2022-10-04T10:49:58;16.40;99.90
11744;DHT22;5929;51.906;7.674;2022-10-04T10:53:08;16.60;99.90
11744;DHT22;5929;51.906;7.674;2022-10-04T10:56:06;16.70;99.90
11744;DHT22;5929;51.906;7.674;2022-10-04T11:02:18;18.00;99.90
11744;DHT22;5929;51.906;7.674;2022-10-04T11:05:00;19.60;94.90
11744;DHT22;5929;51.906;7.674;2022-10-04T11:07:42;20.80;91.00
11744;DHT22;5929;51.906;7.674;2022-10-04T11:16:45;22.50;83.00
11744;DHT22;5929;51.906;7.674;2022-10-04T11:19:42;22.50;81.90
11744;DHT22;5929;51.906;7.674;2022-10-04T11:25:25;22.20;81.20
11744;DHT22;5929;51.906;7.674;2022-10-04T11:28:03;22.10;78.30
11744;DHT22;5929;51.906;7.674;2022-10-04T11:30:51;22.20;77.80
11744;DHT22;5929;51.906;7.674;2022-10-04T11:36:35;22.60;75.90
11744;DHT22;5929;51.906;7.674;2022-10-04T11:39:38;22.80;78.30
11744;DHT22;5929;51.906;7.674;2022-10-04T11:42:18;23.30;75.50
11744;DHT22;5929;51.906;7.674;2022-10-04T11:48:12;23.50;73.60
11744;DHT22;5929;51.906;7.674;2022-10-04T11:50:56;23.40;74.00
11744;DHT22;5929;51.906;7.674;2022-10-04T11:54:21;23.60;74.30
11744;DHT22;5929;51.906;7.674;2022-10-04T11:57:13;24.10;72.50
11744;DHT22;5929;51.906;7.674;2022-10-04T11:59:54;24.10;71.50
11744;DHT22;5929;51.906;7.674;2022-10-04T12:03:16;24.30;72.50
11744;DHT22;5929;51.906;7.674;2022-10-04T12:06:01;24.80;71.00
11744;DHT22;5929;51.906;7.674;2022-10-04T12:08:47;24.50;70.60
11744;DHT22;5929;51.906;7.674;2022-10-04T12:11:50;24.20;70.70
11744;DHT22;5929;51.906;7.674;2022-10-04T12:14:55;24.30;69.30
11744;DHT22;5929;51.906;7.674;2022-10-04T12:17:44;24.60;70.30
11744;DHT22;5929;51.906;7.674;2022-10-04T12:20:50;24.50;69.90
11744;DHT22;5929;51.906;7.674;2022-10-04T12:23:57;24.20;69.30
11744;DHT22;5929;51.906;7.674;2022-10-04T12:26:48;24.10;71.80
11744;DHT22;5929;51.906;7.674;2022-10-04T12:29:51;24.40;69.40
11744;DHT22;5929;51.906;7.674;2022-10-04T12:32:25;24.80;68.00
11744;DHT22;5929;51.906;7.674;2022-10-04T12:35:00;24.30;69.30
11744;DHT22;5929;51.906;7.674;2022-10-04T12:37:40;24.60;69.20
11744;DHT22;5929;51.906;7.674;2022-10-04T12:40:20;25.20;67.20
11744;DHT22;5929;51.906;7.674;2022-10-04T12:42:59;24.80;67.40
11744;DHT22;5929;51.906;7.674;2022-10-04T12:45:48;24.60;67.60
11744;DHT22;5929;51.906;7.674;2022-10-04T12:48:26;24.70;67.00
11744;DHT22;5929;51.906;7.674;2022-10-04T12:51:02;24.30;68.10
11744;DHT22;5929;51.906;7.674;2022-10-04T12:53:45;24.00;69.30
11744;DHT22;5929;51.906;7.674;2022-10-04T12:56:28;24.10;67.90
11744;DHT22;5929;51.906;7.674;2022-10-04T12:59:10;23.10;68.30
11744;DHT22;5929;51.906;7.674;2022-10-04T13:01:49;22.60;69.80
11744;DHT22;5929;51.906;7.674;2022-10-04T13:04:22;22.10;72.70
11744;DHT22;5929;51.906;7.674;2022-10-04T13:07:02;21.80;72.60
11744;DHT22;5929;51.906;7.674;2022-10-04T13:09:42;21.70;74.00
11744;DHT22;5929;51.906;7.674;2022-10-04T13:12:22;22.10;73.20
11744;DHT22;5929;51.906;7.674;2022-10-04T13:15:08;22.00;72.70
11744;DHT22;5929;51.906;7.674;2022-10-04T13:17:44;21.70;72.10
11744;DHT22;5929;51.906;7.674;2022-10-04T13:20:36;21.30;72.60
11744;DHT22;5929;51.906;7.674;2022-10-04T13:23:09;20.90;73.10
11744;DHT22;5929;51.906;7.674;2022-10-04T13:26:06;20.60;76.80
11744;DHT22;5929;51.906;7.674;2022-10-04T13:28:42;20.50;77.30
11744;DHT22;5929;51.906;7.674;2022-10-04T13:31:21;20.50;77.30
11744;DHT22;5929;51.906;7.674;2022-10-04T13:33:56;20.20;77.40
11744;DHT22;5929;51.906;7.674;2022-10-04T13:36:28;20.00;77.20
11744;DHT22;5929;51.906;7.674;2022-10-04T13:39:20;19.80;76.70
11744;DHT22;5929;51.906;7.674;2022-10-04T13:42:17;19.70;77.00
11744;DHT22;5929;51.906;7.674;2022-10-04T13:45:03;19.50;75.70
11744;DHT22;5929;51.906;7.674;2022-10-04T13:47:52;19.30;77.60
11744;DHT22;5929;51.906;7.674;2022-10-04T13:50:30;19.30;79.00
11744;DHT22;5929;51.906;7.674;2022-10-04T13:53:11;19.20;78.90
11744;DHT22;5929;51.906;7.674;2022-10-04T13:56:03;19.10;79.20
11744;DHT22;5929;51.906;7.674;2022-10-04T13:59:00;19.00;80.10
11744;DHT22;5929;51.906;7.674;2022-10-04T14:02:05;19.00;80.00
11744;DHT22;5929;51.906;7.674;2022-10-04T14:05:09;18.90;79.30
11744;DHT22;5929;51.906;7.674;2022-10-04T14:08:05;18.90;79.30
11744;DHT22;5929;51.906;7.674;2022-10-04T14:10:52;18.90;80.00
11744;DHT22;5929;51.906;7.674;2022-10-04T14:13:44;18.90;80.50
11744;DHT22;5929;51.906;7.674;2022-10-04T14:16:29;19.00;79.20
11744;DHT22;5929;51.906;7.674;2022-10-04T14:19:36;19.00;78.70
11744;DHT22;5929;51.906;7.674;2022-10-04T14:22:34;19.00;80.10
11744;DHT22;5929;51.906;7.674;2022-10-04T14:28:32;19.10;81.90
11744;DHT22;5929;51.906;7.674;2022-10-04T14:31:25;19.20;79.70
11744;DHT22;5929;51.906;7.674;2022-10-04T14:34:22;19.20;79.60
11744;DHT22;5929;51.906;7.674;2022-10-04T14:37:19;19.20;79.00
11744;DHT22;5929;51.906;7.674;2022-10-04T14:40:13;19.20;81.10
11744;DHT22;5929;51.906;7.674;2022-10-04T14:43:14;19.30;81.10
11744;DHT22;5929;51.906;7.674;2022-10-04T14:46:00;19.40;80.30
11744;DHT22;5929;51.906;7.674;2022-10-04T14:49:03;19.40;79.30
11744;DHT22;5929;51.906;7.674;2022-10-04T14:51:44;19.80;79.30
11744;DHT22;5929;51.906;7.674;2022-10-04T14:54:25;19.80;79.10
11744;DHT22;5929;51.906;7.674;2022-10-04T14:57:00;19.90;78.70
11744;DHT22;5929;51.906;7.674;2022-10-04T14:59:57;20.10;79.20
11744;DHT22;5929;51.906;7.674;2022-10-04T15:11:38;20.40;77.30
11744;DHT22;5929;51.906;7.674;2022-10-04T15:14:26;20.40;77.00
11744;DHT22;5929;51.906;7.674;2022-10-04T15:16:59;20.30;78.00
11744;DHT22;5929;51.906;7.674;2022-10-04T15:19:29;20.20;78.30
11744;DHT22;5929;51.906;7.674;2022-10-04T15:22:08;20.30;78.20
11744;DHT22;5929;51.906;7.674;2022-10-04T15:24:47;20.30;78.20
11744;DHT22;5929;51.906;7.674;2022-10-04T15:27:34;20.40;76.40
11744;DHT22;5929;51.906;7.674;2022-10-04T15:30:11;20.30;76.80
11744;DHT22;5929;51.906;7.674;2022-10-04T15:32:44;20.10;76.90
11744;DHT22;5929;51.906;7.674;2022-10-04T15:35:20;20.00;76.00
11744;DHT22;5929;51.906;7.674;2022-10-04T15:37:56;19.70;78.10
11744;DHT22;5929;51.906;7.674;2022-10-04T15:40:36;19.60;78.90
11744;DHT22;5929;51.906;7.674;2022-10-04T15:43:17;19.50;79.00
11744;DHT22;5929;51.906;7.674;2022-10-04T15:46:03;19.40;78.00
11744;DHT22;5929;51.906;7.674;2022-10-04T15:51:48;19.20;79.10
11744;DHT22;5929;51.906;7.674;2022-10-04T15:57:25;18.90;79.00
11744;DHT22;5929;51.906;7.674;2022-10-04T16:00:03;18.80;78.90
11744;DHT22;5929;51.906;7.674;2022-10-04T16:02:57;18.70;80.60
11744;DHT22;5929;51.906;7.674;2022-10-04T16:05:36;18.70;80.40
11744;DHT22;5929;51.906;7.674;2022-10-04T16:08:25;18.60;80.70
11744;DHT22;5929;51.906;7.674;2022-10-04T16:11:12;18.50;81.30
11744;DHT22;5929;51.906;7.674;2022-10-04T16:14:17;18.40;81.10
11744;DHT22;5929;51.906;7.674;2022-10-04T16:17:11;18.30;81.50
11744;DHT22;5929;51.906;7.674;2022-10-04T16:25:45;17.90;82.90
11744;DHT22;5929;51.906;7.674;2022-10-04T16:28:25;17.80;84.10
11744;DHT22;5929;51.906;7.674;2022-10-04T16:31:20;17.60;85.00
11744;DHT22;5929;51.906;7.674;2022-10-04T16:34:00;17.40;89.60
11744;DHT22;5929;51.906;7.674;2022-10-04T16:36:44;17.20;91.10
11744;DHT22;5929;51.906;7.674;2022-10-04T16:39:31;16.90;93.00
11744;DHT22;5929;51.906;7.674;2022-10-04T16:42:18;16.70;94.60
11744;DHT22;5929;51.906;7.674;2022-10-04T16:44:51;16.50;94.80
11744;DHT22;5929;51.906;7.674;2022-10-04T16:47:22;16.40;96.60
11744;DHT22;5929;51.906;7.674;2022-10-04T16:49:53;16.30;96.40
11744;DHT22;5929;51.906;7.674;2022-10-04T16:52:42;16.20;97.90
11744;DHT22;5929;51.906;7.674;2022-10-04T16:55:43;16.00;98.70
11744;DHT22;5929;51.906;7.674;2022-10-04T16:58:41;15.70;99.90
11744;DHT22;5929;51.906;7.674;2022-10-04T17:04:51;15.50;99.90
11744;DHT22;5929;51.906;7.674;2022-10-04T17:07:33;15.20;99.90
11744;DHT22;5929;51.906;7.674;2022-10-04T17:10:16;15.10;99.90
11744;DHT22;5929;51.906;7.674;2022-10-04T17:12:55;15.00;99.90
11744;DHT22;5929;51.906;7.674;2022-10-04T17:15:36;14.90;99.90
11744;DHT22;5929;51.906;7.674;2022-10-04T17:18:14;14.70;99.90
11744;DHT22;5929;51.906;7.674;2022-10-04T17:20:50;14.60;99.90
11744;DHT22;5929;51.906;7.674;2022-10-04T17:23:58;14.50;99.90
11744;DHT22;5929;51.906;7.674;2022-10-04T17:26:40;14.40;99.90
11744;DHT22;5929;51.906;7.674;2022-10-04T17:29:39;14.30;99.90
11744;DHT22;5929;51.906;7.674;2022-10-04T17:32:17;14.30;99.90
11744;DHT22;5929;51.906;7.674;2022-10-04T17:35:05;14.20;99.90
11744;DHT22;5929;51.906;7.674;2022-10-04T17:37:42;14.10;99.90
11744;DHT22;5929;51.906;7.674;2022-10-04T17:40:26;14.10;99.90
11744;DHT22;5929;51.906;7.674;2022-10-04T17:42:59;14.10;99.90
11744;DHT22;5929;51.906;7.674;2022-10-04T17:45:55;14.00;99.90
11744;DHT22;5929;51.906;7.674;2022-10-04T17:48:26;14.00;99.90
11744;DHT22;5929;51.906;7.674;2022-10-04T17:51:26;13.90;99.90
11744;DHT22;5929;51.906;7.674;2022-10-04T17:54:15;13.80;99.90
11744;DHT22;5929;51.906;7.674;2022-10-04T17:57:16;13.70;99.90
11744;DHT22;5929;51.906;7.674;2022-10-04T17:59:50;13.60;99.90
11744;DHT22;5929;51.906;7.674;2022-10-04T18:02:22;13.60;99.90
11744;DHT22;5929;51.906;7.674;2022-10-04T18:04:56;13.50;99.90
11744;DHT22;5929;51.906;7.674;2022-10-04T18:07:30;13.50;99.90
11744;DHT22;5929;51.906;7.674;2022-10-04T18:10:02;13.40;99.90
11744;DHT22;5929;51.906;7.674;2022-10-04T18:12:43;13.40;99.90
11744;DHT22;5929;51.906;7.674;2022-10-04T18:15:17;13.30;99.90
11744;DHT22;5929;51.906;7.674;2022-10-04T18:17:48;13.30;99.90
11744;DHT22;5929;51.906;7.674;2022-10-04T18:20:26;13.20;99.90
11744;DHT22;5929;51.906;7.674;2022-10-04T18:22:58;13.20;99.90
11744;DHT22;5929;51.906;7.674;2022-10-04T18:25:27;13.10;99.90
11744;DHT22;5929;51.906;7.674;2022-10-04T18:28:02;13.10;99.90
11744;DHT22;5929;51.906;7.674;2022-10-04T18:30:32;13.00;99.90
11744;DHT22;5929;51.906;7.674;2022-10-04T18:33:00;13.00;99.90
11744;DHT22;5929;51.906;7.674;2022-10-04T18:35:32;13.00;99.90
11744;DHT22;5929;51.906;7.674;2022-10-04T18:38:19;13.00;99.90
11744;DHT22;5929;51.906;7.674;2022-10-04T18:40:53;13.00;99.90
11744;DHT22;5929;51.906;7.674;2022-10-04T18:43:27;12.90;99.90
11744;DHT22;5929;51.906;7.674;2022-10-04T18:46:02;13.00;99.90
11744;DHT22;5929;51.906;7.674;2022-10-04T18:48:43;12.90;99.90
11744;DHT22;5929;51.906;7.674;2022-10-04T18:51:29;12.80;99.90
11744;DHT22;5929;51.906;7.674;2022-10-04T18:54:08;12.80;99.90
11744;DHT22;5929;51.906;7.674;2022-10-04T18:56:45;12.70;99.90
11744;DHT22;5929;51.906;7.674;2022-10-04T18:59:20;12.60;99.90